sensor_id;sensor_type;location;lat;lon;timestamp;pressure;altitude;pressure_sealevel;temperature;humidity
22031;BME280;11179;52.106;21.024;2023-01-28T00:00:51;101190.38;;;0.57;68.76
22031;BME280;11179;52.106;21.024;2023-01-28T00:03:17;101187.69;;;0.48;68.53
22031;BME280;11179;52.106;21.024;2023-01-28T00:05:42;101188.72;;;0.47;68.76
22031;BME280;11179;52.106;21.024;2023-01-28T00:08:07;101193.09;;;0.48;68.53
22031;BME280;11179;52.106;21.024;2023-01-28T00:10:33;101193.44;;;0.45;68.59
22031;BME280;11179;52.106;21.024;2023-01-28T00:12:58;101197.50;;;0.41;68.74
22031;BME280;11179;52.106;21.024;2023-01-28T00:15:23;101204.44;;;0.36;68.98
22031;BME280;11179;52.106;21.024;2023-01-28T00:17:50;101205.59;;;0.41;68.90
22031;BME280;11179;52.106;21.024;2023-01-28T00:20:15;101208.13;;;0.43;68.91
22031;BME280;11179;52.106;21.024;2023-01-28T00:22:46;101201.56;;;0.37;68.82
22031;BME280;11179;52.106;21.024;2023-01-28T00:25:12;101209.00;;;0.35;68.78
22031;BME280;11179;52.106;21.024;2023-01-28T00:27:37;101202.56;;;0.28;69.21
22031;BME280;11179;52.106;21.024;2023-01-28T00:30:02;101204.44;;;0.28;69.08
22031;BME280;11179;52.106;21.024;2023-01-28T00:32:28;101198.03;;;0.29;69.08
22031;BME280;11179;52.106;21.024;2023-01-28T00:34:54;101202.56;;;0.28;68.91
22031;BME280;11179;52.106;21.024;2023-01-28T00:37:19;101198.19;;;0.27;69.02
22031;BME280;11179;52.106;21.024;2023-01-28T00:39:45;101196.34;;;0.28;68.97
22031;BME280;11179;52.106;21.024;2023-01-28T00:42:10;101192.13;;;0.25;68.92
22031;BME280;11179;52.106;21.024;2023-01-28T00:44:35;101201.22;;;0.40;68.94
22031;BME280;11179;52.106;21.024;2023-01-28T00:47:01;101200.22;;;0.33;68.93
22031;BME280;11179;52.106;21.024;2023-01-28T00:49:26;101195.66;;;0.34;69.07
22031;BME280;11179;52.106;21.024;2023-01-28T00:51:51;101192.13;;;0.25;68.81
22031;BME280;11179;52.106;21.024;2023-01-28T00:54:16;101186.19;;;0.30;69.02
22031;BME280;11179;52.106;21.024;2023-01-28T00:56:42;101199.53;;;0.31;69.05
22031;BME280;11179;52.106;21.024;2023-01-28T00:59:07;101194.47;;;0.36;69.14
22031;BME280;11179;52.106;21.024;2023-01-28T01:01:33;101200.03;;;0.43;69.01
22031;BME280;11179;52.106;21.024;2023-01-28T01:03:58;101193.78;;;0.42;68.98
22031;BME280;11179;52.106;21.024;2023-01-28T01:06:34;101195.47;;;0.43;68.97
22031;BME280;11179;52.106;21.024;2023-01-28T01:09:01;101194.13;;;0.47;68.93
22031;BME280;11179;52.106;21.024;2023-01-28T01:11:26;101193.31;;;0.39;68.86
22031;BME280;11179;52.106;21.024;2023-01-28T01:13:57;101195.50;;;0.35;68.89
22031;BME280;11179;52.106;21.024;2023-01-28T01:16:27;101201.91;;;0.34;69.10
22031;BME280;11179;52.106;21.024;2023-01-28T01:18:54;101207.81;;;0.38;69.01
22031;BME280;11179;52.106;21.024;2023-01-28T01:21:23;101196.50;;;0.34;69.09
22031;BME280;11179;52.106;21.024;2023-01-28T01:23:50;101188.75;;;0.39;69.21
22031;BME280;11179;52.106;21.024;2023-01-28T01:26:16;101200.19;;;0.49;68.95
22031;BME280;11179;52.106;21.024;2023-01-28T01:28:42;101191.06;;;0.50;68.98
22031;BME280;11179;52.106;21.024;2023-01-28T01:31:11;101195.78;;;0.57;68.99
22031;BME280;11179;52.106;21.024;2023-01-28T01:33:38;101196.47;;;0.50;69.14
22031;BME280;11179;52.106;21.024;2023-01-28T01:36:04;101189.03;;;0.53;69.00
22031;BME280;11179;52.106;21.024;2023-01-28T01:38:29;101188.69;;;0.56;69.05
22031;BME280;11179;52.106;21.024;2023-01-28T01:40:56;101190.41;;;0.48;69.09
22031;BME280;11179;52.106;21.024;2023-01-28T01:43:22;101196.78;;;0.56;69.23
22031;BME280;11179;52.106;21.024;2023-01-28T01:45:54;101190.03;;;0.60;69.17
22031;BME280;11179;52.106;21.024;2023-01-28T01:48:31;101193.25;;;0.63;69.12
22031;BME280;11179;52.106;21.024;2023-01-28T01:51:10;101191.72;;;0.61;68.94
22031;BME280;11179;52.106;21.024;2023-01-28T01:53:45;101192.41;;;0.55;68.90
22031;BME280;11179;52.106;21.024;2023-01-28T01:56:16;101201.34;;;0.55;69.07
22031;BME280;11179;52.106;21.024;2023-01-28T01:58:43;101198.34;;;0.50;68.88
22031;BME280;11179;52.106;21.024;2023-01-28T02:01:10;101197.50;;;0.49;68.91
22031;BME280;11179;52.106;21.024;2023-01-28T02:03:51;101186.50;;;0.51;69.16
22031;BME280;11179;52.106;21.024;2023-01-28T02:06:18;101198.63;;;0.63;68.98
22031;BME280;11179;52.106;21.024;2023-01-28T02:08:44;101197.78;;;0.63;68.95
22031;BME280;11179;52.106;21.024;2023-01-28T02:11:10;101190.03;;;0.60;68.99
22031;BME280;11179;52.106;21.024;2023-01-28T02:13:40;101197.13;;;0.61;69.07
22031;BME280;11179;52.106;21.024;2023-01-28T02:16:08;101204.53;;;0.67;68.82
22031;BME280;11179;52.106;21.024;2023-01-28T02:18:34;101193.06;;;0.65;68.90
22031;BME280;11179;52.106;21.024;2023-01-28T02:29:21;101196.91;;;0.70;68.87
22031;BME280;11179;52.106;21.024;2023-01-28T02:34:37;101196.06;;;0.70;68.81
22031;BME280;11179;52.106;21.024;2023-01-28T02:37:20;101193.72;;;0.67;68.96
22031;BME280;11179;52.106;21.024;2023-01-28T02:39:48;101195.78;;;0.65;68.77
22031;BME280;11179;52.106;21.024;2023-01-28T02:42:22;101181.41;;;0.56;69.02
22031;BME280;11179;52.106;21.024;2023-01-28T02:44:49;101191.88;;;0.59;69.00
22031;BME280;11179;52.106;21.024;2023-01-28T02:47:14;101196.41;;;0.67;68.93
22031;BME280;11179;52.106;21.024;2023-01-28T02:50:02;101205.00;;;0.78;68.96
22031;BME280;11179;52.106;21.024;2023-01-28T02:55:34;101202.44;;;0.85;68.86
22031;BME280;11179;52.106;21.024;2023-01-28T02:58:15;101198.41;;;0.81;68.61
22031;BME280;11179;52.106;21.024;2023-01-28T03:00:57;101213.94;;;0.87;68.67
22031;BME280;11179;52.106;21.024;2023-01-28T03:06:08;101204.63;;;0.90;68.73
22031;BME280;11179;52.106;21.024;2023-01-28T03:11:23;101201.88;;;0.98;68.80
22031;BME280;11179;52.106;21.024;2023-01-28T03:14:08;101197.31;;;0.98;68.73
22031;BME280;11179;52.106;21.024;2023-01-28T03:16:56;101199.69;;;1.01;68.43
22031;BME280;11179;52.106;21.024;2023-01-28T03:19:42;101209.66;;;1.01;68.66
22031;BME280;11179;52.106;21.024;2023-01-28T03:22:28;101199.69;;;1.01;68.39
22031;BME280;11179;52.106;21.024;2023-01-28T03:25:17;101199.84;;;1.00;68.59
22031;BME280;11179;52.106;21.024;2023-01-28T03:28:05;101206.78;;;1.02;68.50
22031;BME280;11179;52.106;21.024;2023-01-28T03:31:03;101206.28;;;0.99;68.55
22031;BME280;11179;52.106;21.024;2023-01-28T03:33:49;101202.91;;;0.97;68.53
22031;BME280;11179;52.106;21.024;2023-01-28T03:36:34;101203.75;;;0.97;68.52
22031;BME280;11179;52.106;21.024;2023-01-28T03:39:24;101205.44;;;0.98;68.58
22031;BME280;11179;52.106;21.024;2023-01-28T03:42:11;101204.25;;;1.01;68.67
22031;BME280;11179;52.106;21.024;2023-01-28T03:44:37;101200.88;;;0.99;68.40
22031;BME280;11179;52.106;21.024;2023-01-28T03:47:20;101192.09;;;0.97;68.58
22031;BME280;11179;52.106;21.024;2023-01-28T03:49:47;101195.28;;;1.00;68.55
22031;BME280;11179;52.106;21.024;2023-01-28T03:52:21;101193.94;;;0.96;68.52
22031;BME280;11179;52.106;21.024;2023-01-28T03:54:47;101204.06;;;1.02;68.78
22031;BME280;11179;52.106;21.024;2023-01-28T03:57:17;101198.66;;;1.02;68.75
22031;BME280;11179;52.106;21.024;2023-01-28T03:59:43;101199.84;;;1.00;68.63
22031;BME280;11179;52.106;21.024;2023-01-28T04:02:09;101204.75;;;1.04;68.75
22031;BME280;11179;52.106;21.024;2023-01-28T04:04:39;101193.44;;;1.01;68.80
22031;BME280;11179;52.106;21.024;2023-01-28T04:07:06;101201.72;;;0.99;68.83
22031;BME280;11179;52.106;21.024;2023-01-28T04:09:37;101204.09;;;0.94;68.93
22031;BME280;11179;52.106;21.024;2023-01-28T04:12:03;101203.13;;;0.87;68.94
22031;BME280;11179;52.106;21.024;2023-01-28T04:14:29;101204.66;;;0.81;69.12
22031;BME280;11179;52.106;21.024;2023-01-28T04:16:55;101205.88;;;0.79;69.24
22031;BME280;11179;52.106;21.024;2023-01-28T04:19:21;101201.78;;;0.83;69.30
22031;BME280;11179;52.106;21.024;2023-01-28T04:21:46;101197.75;;;0.79;69.25
22031;BME280;11179;52.106;21.024;2023-01-28T04:24:13;101198.78;;;0.78;69.27
22031;BME280;11179;52.106;21.024;2023-01-28T04:26:39;101195.56;;;0.74;69.23
22031;BME280;11179;52.106;21.024;2023-01-28T04:29:04;101202.88;;;0.66;69.53
22031;BME280;11179;52.106;21.024;2023-01-28T04:31:30;101191.22;;;0.57;69.65
22031;BME280;11179;52.106;21.024;2023-01-28T04:33:55;101208.59;;;0.63;69.56
22031;BME280;11179;52.106;21.024;2023-01-28T04:36:20;101201.50;;;0.54;69.43
22031;BME280;11179;52.106;21.024;2023-01-28T04:38:46;101191.41;;;0.47;69.78
22031;BME280;11179;52.106;21.024;2023-01-28T04:41:11;101207.97;;;0.53;69.39
22031;BME280;11179;52.106;21.024;2023-01-28T04:43:36;101208.28;;;0.58;69.76
22031;BME280;11179;52.106;21.024;2023-01-28T04:46:02;101212.81;;;0.57;70.15
22031;BME280;11179;52.106;21.024;2023-01-28T04:48:27;101194.78;;;0.49;69.71
22031;BME280;11179;52.106;21.024;2023-01-28T04:50:55;101212.00;;;0.57;69.69
22031;BME280;11179;52.106;21.024;2023-01-28T04:53:20;101214.19;;;0.61;69.89
22031;BME280;11179;52.106;21.024;2023-01-28T04:55:45;101198.81;;;0.54;69.69
22031;BME280;11179;52.106;21.024;2023-01-28T04:58:10;101214.19;;;0.61;69.71
22031;BME280;11179;52.106;21.024;2023-01-28T05:00:36;101209.63;;;0.54;69.90
22031;BME280;11179;52.106;21.024;2023-01-28T05:03:01;101209.44;;;0.55;69.71
22031;BME280;11179;52.106;21.024;2023-01-28T05:05:26;101214.19;;;0.53;69.96
22031;BME280;11179;52.106;21.024;2023-01-28T05:07:53;101206.28;;;0.52;70.21
22031;BME280;11179;52.106;21.024;2023-01-28T05:10:19;101209.13;;;0.58;69.84
22031;BME280;11179;52.106;21.024;2023-01-28T05:12:45;101206.06;;;0.53;69.89
22031;BME280;11179;52.106;21.024;2023-01-28T05:15:11;101205.59;;;0.49;69.92
22031;BME280;11179;52.106;21.024;2023-01-28T05:17:36;101219.06;;;0.58;69.81
22031;BME280;11179;52.106;21.024;2023-01-28T05:20:02;101221.81;;;0.49;69.75
22031;BME280;11179;52.106;21.024;2023-01-28T05:22:28;101223.84;;;0.47;69.94
22031;BME280;11179;52.106;21.024;2023-01-28T05:24:53;101222.50;;;0.52;70.20
22031;BME280;11179;52.106;21.024;2023-01-28T05:27:19;101216.25;;;0.51;70.05
22031;BME280;11179;52.106;21.024;2023-01-28T05:29:44;101216.41;;;0.49;69.96
22031;BME280;11179;52.106;21.024;2023-01-28T05:32:09;101221.47;;;0.53;69.84
22031;BME280;11179;52.106;21.024;2023-01-28T05:34:35;101221.66;;;0.51;70.05
22031;BME280;11179;52.106;21.024;2023-01-28T05:37:00;101229.56;;;0.61;69.78
22031;BME280;11179;52.106;21.024;2023-01-28T05:39:25;101227.19;;;0.66;70.12
22031;BME280;11179;52.106;21.024;2023-01-28T05:41:50;101226.34;;;0.65;70.06
22031;BME280;11179;52.106;21.024;2023-01-28T05:44:16;101211.31;;;0.63;69.90
22031;BME280;11179;52.106;21.024;2023-01-28T05:46:41;101230.53;;;0.68;69.71
22031;BME280;11179;52.106;21.024;2023-01-28T05:49:10;101229.72;;;0.59;69.72
22031;BME280;11179;52.106;21.024;2023-01-28T05:51:40;101209.66;;;0.45;69.91
22031;BME280;11179;52.106;21.024;2023-01-28T05:54:06;101223.81;;;0.56;69.79
22031;BME280;11179;52.106;21.024;2023-01-28T05:56:32;101220.13;;;0.40;70.16
22031;BME280;11179;52.106;21.024;2023-01-28T05:58:59;101234.16;;;0.52;70.19
22031;BME280;11179;52.106;21.024;2023-01-28T06:01:24;101228.38;;;0.55;70.01
22031;BME280;11179;52.106;21.024;2023-01-28T06:03:49;101220.13;;;0.48;69.96
22031;BME280;11179;52.106;21.024;2023-01-28T06:06:14;101228.56;;;0.45;69.88
22031;BME280;11179;52.106;21.024;2023-01-28T06:08:40;101226.19;;;0.42;70.08
22031;BME280;11179;52.106;21.024;2023-01-28T06:11:05;101237.31;;;0.56;70.35
22031;BME280;11179;52.106;21.024;2023-01-28T06:13:31;101223.84;;;0.47;69.78
22031;BME280;11179;52.106;21.024;2023-01-28T06:15:56;101237.69;;;0.53;69.78
22031;BME280;11179;52.106;21.024;2023-01-28T06:18:21;101232.59;;;0.58;69.82
22031;BME280;11179;52.106;21.024;2023-01-28T06:20:48;101252.03;;;0.61;69.95
22031;BME280;11179;52.106;21.024;2023-01-28T06:23:14;101248.13;;;0.56;69.86
22031;BME280;11179;52.106;21.024;2023-01-28T06:25:39;101242.03;;;0.54;69.88
22031;BME280;11179;52.106;21.024;2023-01-28T06:28:04;101245.91;;;0.67;69.52
22031;BME280;11179;52.106;21.024;2023-01-28T06:30:29;101252.84;;;0.70;69.58
22031;BME280;11179;52.106;21.024;2023-01-28T06:32:55;101255.38;;;0.71;69.39
22031;BME280;11179;52.106;21.024;2023-01-28T06:35:20;101265.66;;;0.68;69.80
22031;BME280;11179;52.106;21.024;2023-01-28T06:37:46;101259.97;;;0.63;69.75
22031;BME280;11179;52.106;21.024;2023-01-28T06:40:11;101252.19;;;0.60;69.62
22031;BME280;11179;52.106;21.024;2023-01-28T06:42:37;101244.59;;;0.55;69.62
22031;BME280;11179;52.106;21.024;2023-01-28T06:45:02;101262.84;;;0.61;69.83
22031;BME280;11179;52.106;21.024;2023-01-28T06:47:27;101255.56;;;0.62;69.62
22031;BME280;11179;52.106;21.024;2023-01-28T06:49:53;101259.97;;;0.63;69.57
22031;BME280;11179;52.106;21.024;2023-01-28T06:52:18;101250.66;;;0.57;69.67
22031;BME280;11179;52.106;21.024;2023-01-28T06:54:43;101263.84;;;0.60;69.41
22031;BME280;11179;52.106;21.024;2023-01-28T06:57:09;101274.81;;;0.59;69.52
22031;BME280;11179;52.106;21.024;2023-01-28T06:59:34;101271.09;;;0.60;69.81
22031;BME280;11179;52.106;21.024;2023-01-28T07:01:59;101278.19;;;0.69;69.65
22031;BME280;11179;52.106;21.024;2023-01-28T07:04:24;101276.31;;;0.69;69.56
22031;BME280;11179;52.106;21.024;2023-01-28T07:06:50;101279.88;;;0.70;69.58
22031;BME280;11179;52.106;21.024;2023-01-28T07:09:15;101286.13;;;0.78;69.20
22031;BME280;11179;52.106;21.024;2023-01-28T07:11:40;101280.22;;;0.75;69.42
22031;BME280;11179;52.106;21.024;2023-01-28T07:14:06;101276.81;;;0.73;69.54
22031;BME280;11179;52.106;21.024;2023-01-28T07:16:31;101291.34;;;0.72;69.31
22031;BME280;11179;52.106;21.024;2023-01-28T07:18:56;101298.78;;;0.70;69.49
22031;BME280;11179;52.106;21.024;2023-01-28T07:21:22;101285.28;;;0.62;69.55
22031;BME280;11179;52.106;21.024;2023-01-28T07:23:47;101301.16;;;0.73;69.40
22031;BME280;11179;52.106;21.024;2023-01-28T07:26:12;101278.00;;;0.70;69.39
22031;BME280;11179;52.106;21.024;2023-01-28T07:28:39;101293.03;;;0.73;69.47
22031;BME280;11179;52.106;21.024;2023-01-28T07:31:04;101283.59;;;0.77;69.66
22031;BME280;11179;52.106;21.024;2023-01-28T07:33:30;101279.19;;;0.76;69.55
22031;BME280;11179;52.106;21.024;2023-01-28T07:35:55;101284.25;;;0.71;69.27
22031;BME280;11179;52.106;21.024;2023-01-28T07:38:20;101290.16;;;0.74;69.40
22031;BME280;11179;52.106;21.024;2023-01-28T07:40:46;101295.59;;;0.66;69.46
22031;BME280;11179;52.106;21.024;2023-01-28T07:43:12;101301.66;;;0.68;69.56
22031;BME280;11179;52.106;21.024;2023-01-28T07:45:37;101300.47;;;0.71;69.76
22031;BME280;11179;52.106;21.024;2023-01-28T07:48:04;101291.53;;;0.62;69.49
22031;BME280;11179;52.106;21.024;2023-01-28T07:50:32;101286.97;;;0.71;69.79
22031;BME280;11179;52.106;21.024;2023-01-28T07:52:58;101296.72;;;0.80;69.53
22031;BME280;11179;52.106;21.024;2023-01-28T07:55:24;101296.56;;;0.90;69.80
22031;BME280;11179;52.106;21.024;2023-01-28T07:57:55;101288.13;;;0.93;69.68
22031;BME280;11179;52.106;21.024;2023-01-28T08:00:22;101297.38;;;0.98;69.57
22031;BME280;11179;52.106;21.024;2023-01-28T08:02:48;101283.69;;;1.00;69.49
22031;BME280;11179;52.106;21.024;2023-01-28T08:05:15;101292.78;;;1.07;69.56
22031;BME280;11179;52.106;21.024;2023-01-28T08:07:41;101294.63;;;1.14;69.44
22031;BME280;11179;52.106;21.024;2023-01-28T08:10:07;101286.72;;;1.05;69.57
22031;BME280;11179;52.106;21.024;2023-01-28T08:12:32;101283.00;;;1.06;69.53
22031;BME280;11179;52.106;21.024;2023-01-28T08:14:57;101280.94;;;1.08;69.38
22031;BME280;11179;52.106;21.024;2023-01-28T08:17:23;101286.06;;;1.03;69.30
22031;BME280;11179;52.106;21.024;2023-01-28T08:19:48;101276.94;;;1.04;69.26
22031;BME280;11179;52.106;21.024;2023-01-28T08:22:13;101294.97;;;1.19;69.41
22031;BME280;11179;52.106;21.024;2023-01-28T08:24:39;101286.19;;;1.17;69.54
22031;BME280;11179;52.106;21.024;2023-01-28T08:27:04;101289.91;;;1.16;69.49
22031;BME280;11179;52.106;21.024;2023-01-28T08:29:29;101284.16;;;1.11;69.27
22031;BME280;11179;52.106;21.024;2023-01-28T08:31:55;101286.84;;;1.11;69.37
22031;BME280;11179;52.106;21.024;2023-01-28T08:34:20;101286.53;;;1.06;69.52
22031;BME280;11179;52.106;21.024;2023-01-28T08:36:45;101295.81;;;1.12;69.34
22031;BME280;11179;52.106;21.024;2023-01-28T08:39:10;101278.63;;;1.05;69.29
22031;BME280;11179;52.106;21.024;2023-01-28T08:41:36;101287.69;;;1.12;69.42
22031;BME280;11179;52.106;21.024;2023-01-28T08:44:02;101292.09;;;1.13;69.50
22031;BME280;11179;52.106;21.024;2023-01-28T08:46:27;101285.16;;;1.10;69.51
22031;BME280;11179;52.106;21.024;2023-01-28T08:48:52;101285.34;;;1.09;69.54
22031;BME280;11179;52.106;21.024;2023-01-28T08:51:18;101284.66;;;1.15;69.53
22031;BME280;11179;52.106;21.024;2023-01-28T08:53:43;101291.41;;;1.11;69.66
22031;BME280;11179;52.106;21.024;2023-01-28T08:56:08;101294.97;;;1.19;69.50
22031;BME280;11179;52.106;21.024;2023-01-28T08:58:34;101304.09;;;1.18;69.29
22031;BME280;11179;52.106;21.024;2023-01-28T09:01:05;101300.72;;;1.16;69.62
22031;BME280;11179;52.106;21.024;2023-01-28T09:03:31;101300.38;;;1.11;69.62
22031;BME280;11179;52.106;21.024;2023-01-28T09:06:00;101309.50;;;1.18;69.78
22031;BME280;11179;52.106;21.024;2023-01-28T09:08:26;101305.59;;;1.21;69.81
22031;BME280;11179;52.106;21.024;2023-01-28T09:10:58;101303.09;;;1.19;69.59
22031;BME280;11179;52.106;21.024;2023-01-28T09:13:24;101309.34;;;1.12;69.51
22031;BME280;11179;52.106;21.024;2023-01-28T09:15:49;101311.03;;;1.13;69.72
22031;BME280;11179;52.106;21.024;2023-01-28T09:18:16;101304.94;;;1.11;69.58
22031;BME280;11179;52.106;21.024;2023-01-28T09:20:41;101315.25;;;1.15;69.67
22031;BME280;11179;52.106;21.024;2023-01-28T09:23:07;101309.03;;;0.99;69.65
22031;BME280;11179;52.106;21.024;2023-01-28T09:25:33;101317.31;;;0.97;69.74
22031;BME280;11179;52.106;21.024;2023-01-28T09:28:00;101326.63;;;1.03;69.99
22031;BME280;11179;52.106;21.024;2023-01-28T09:30:25;101319.53;;;1.02;69.92
22031;BME280;11179;52.106;21.024;2023-01-28T09:32:52;101315.47;;;1.06;69.83
22031;BME280;11179;52.106;21.024;2023-01-28T09:35:18;101325.56;;;1.12;69.69
22031;BME280;11179;52.106;21.024;2023-01-28T09:37:44;101325.56;;;1.12;69.63
22031;BME280;11179;52.106;21.024;2023-01-28T09:40:40;101330.47;;;1.16;69.77
22031;BME280;11179;52.106;21.024;2023-01-28T09:43:18;101328.06;;;1.21;69.53
22031;BME280;11179;52.106;21.024;2023-01-28T09:45:51;101327.78;;;1.16;69.60
22031;BME280;11179;52.106;21.024;2023-01-28T09:48:22;101316.28;;;1.14;69.75
22031;BME280;11179;52.106;21.024;2023-01-28T09:50:51;101315.88;;;1.26;69.76
22031;BME280;11179;52.106;21.024;2023-01-28T09:53:20;101325.69;;;1.27;69.83
22031;BME280;11179;52.106;21.024;2023-01-28T09:56:11;101310.53;;;1.17;69.72
22031;BME280;11179;52.106;21.024;2023-01-28T09:58:34;101314.53;;;1.21;70.13
22031;BME280;11179;52.106;21.024;2023-01-28T10:07:00;101312.31;;;1.33;69.82
22031;BME280;11179;52.106;21.024;2023-01-28T10:12:38;101304.34;;;1.40;69.64
22031;BME280;11179;52.106;21.024;2023-01-28T10:18:09;101296.16;;;1.48;69.57
22031;BME280;11179;52.106;21.024;2023-01-28T10:20:40;101299.88;;;1.55;69.74
22031;BME280;11179;52.106;21.024;2023-01-28T10:23:16;101303.59;;;1.54;69.36
22031;BME280;11179;52.106;21.024;2023-01-28T10:25:45;101291.09;;;1.53;69.50
22031;BME280;11179;52.106;21.024;2023-01-28T10:28:32;101288.72;;;1.50;69.50
22031;BME280;11179;52.106;21.024;2023-01-28T10:30:57;101282.63;;;1.48;69.50
22031;BME280;11179;52.106;21.024;2023-01-28T10:33:43;101289.75;;;1.49;69.52
22031;BME280;11179;52.106;21.024;2023-01-28T10:36:08;101298.59;;;1.43;69.60
22031;BME280;11179;52.106;21.024;2023-01-28T10:38:34;101301.97;;;1.37;69.53
22031;BME280;11179;52.106;21.024;2023-01-28T10:41:01;101288.44;;;1.37;69.78
22031;BME280;11179;52.106;21.024;2023-01-28T10:43:37;101287.94;;;1.41;69.96
22031;BME280;11179;52.106;21.024;2023-01-28T10:46:12;101291.31;;;1.35;69.71
22031;BME280;11179;52.106;21.024;2023-01-28T10:48:59;101296.56;;;1.45;69.47
22031;BME280;11179;52.106;21.024;2023-01-28T10:51:37;101291.88;;;1.22;69.71
22031;BME280;11179;52.106;21.024;2023-01-28T10:54:17;101291.22;;;1.20;69.79
22031;BME280;11179;52.106;21.024;2023-01-28T10:56:43;101279.53;;;1.20;69.55
22031;BME280;11179;52.106;21.024;2023-01-28T10:59:35;101282.41;;;1.27;69.98
22031;BME280;11179;52.106;21.024;2023-01-28T11:02:28;101289.47;;;1.36;69.55
22031;BME280;11179;52.106;21.024;2023-01-28T11:05:15;101277.44;;;1.38;69.61
22031;BME280;11179;52.106;21.024;2023-01-28T11:07:41;101287.88;;;1.49;69.53
22031;BME280;11179;52.106;21.024;2023-01-28T11:10:28;101281.59;;;1.57;69.41
22031;BME280;11179;52.106;21.024;2023-01-28T11:12:55;101282.28;;;1.59;69.46
22031;BME280;11179;52.106;21.024;2023-01-28T11:15:21;101277.06;;;1.49;69.25
22031;BME280;11179;52.106;21.024;2023-01-28T11:17:51;101272.97;;;1.53;69.57
22031;BME280;11179;52.106;21.024;2023-01-28T11:20:21;101280.03;;;1.63;69.42
22031;BME280;11179;52.106;21.024;2023-01-28T11:22:49;101261.63;;;1.58;69.25
22031;BME280;11179;52.106;21.024;2023-01-28T11:25:33;101265.66;;;1.62;69.28
22031;BME280;11179;52.106;21.024;2023-01-28T11:28:01;101275.78;;;1.68;69.25
22031;BME280;11179;52.106;21.024;2023-01-28T11:30:30;101256.84;;;1.60;69.16
22031;BME280;11179;52.106;21.024;2023-01-28T11:33:15;101266.56;;;1.54;68.98
22031;BME280;11179;52.106;21.024;2023-01-28T11:35:41;101267.78;;;1.44;69.20
22031;BME280;11179;52.106;21.024;2023-01-28T11:38:23;101262.28;;;1.29;69.34
22031;BME280;11179;52.106;21.024;2023-01-28T11:40:53;101263.13;;;1.30;69.58
22031;BME280;11179;52.106;21.024;2023-01-28T11:43:23;101265.78;;;1.38;69.62
22031;BME280;11179;52.106;21.024;2023-01-28T11:51:20;101260.38;;;1.38;69.57
22031;BME280;11179;52.106;21.024;2023-01-28T11:57:16;101260.38;;;1.38;69.08
22031;BME280;11179;52.106;21.024;2023-01-28T12:02:56;101252.44;;;1.36;69.25
22031;BME280;11179;52.106;21.024;2023-01-28T12:13:58;101259.00;;;1.42;69.19
22031;BME280;11179;52.106;21.024;2023-01-28T12:22:20;101254.22;;;1.52;69.18
22031;BME280;11179;52.106;21.024;2023-01-28T12:28:00;101253.88;;;1.47;69.07
22031;BME280;11179;52.106;21.024;2023-01-28T12:30:47;101255.28;;;1.43;69.00
22031;BME280;11179;52.106;21.024;2023-01-28T12:36:06;101252.56;;;1.43;69.04
22031;BME280;11179;52.106;21.024;2023-01-28T12:41:21;101247.63;;;1.46;69.00
22031;BME280;11179;52.106;21.024;2023-01-28T12:43:50;101251.19;;;1.47;68.94
22031;BME280;11179;52.106;21.024;2023-01-28T12:46:47;101254.28;;;1.44;69.03
22031;BME280;11179;52.106;21.024;2023-01-28T12:49:21;101252.25;;;1.38;68.99
22031;BME280;11179;52.106;21.024;2023-01-28T12:52:02;101250.38;;;1.38;68.99
22031;BME280;11179;52.106;21.024;2023-01-28T12:57:01;101242.44;;;1.37;68.71
22031;BME280;11179;52.106;21.024;2023-01-28T12:59:31;101254.94;;;1.46;68.92
22031;BME280;11179;52.106;21.024;2023-01-28T13:02:25;101252.06;;;1.39;68.68
22031;BME280;11179;52.106;21.024;2023-01-28T13:05:09;101253.63;;;1.34;68.96
22031;BME280;11179;52.106;21.024;2023-01-28T13:07:58;101256.53;;;1.32;68.93
22031;BME280;11179;52.106;21.024;2023-01-28T13:10:37;101261.22;;;1.38;68.87
22031;BME280;11179;52.106;21.024;2023-01-28T13:13:05;101270.13;;;1.47;68.82
22031;BME280;11179;52.106;21.024;2023-01-28T13:15:31;101254.72;;;1.47;68.63
22031;BME280;11179;52.106;21.024;2023-01-28T13:17:58;101253.25;;;1.45;68.57
22031;BME280;11179;52.106;21.024;2023-01-28T13:20:50;101254.94;;;1.46;68.42
22031;BME280;11179;52.106;21.024;2023-01-28T13:23:41;101260.38;;;1.38;68.63
22031;BME280;11179;52.106;21.024;2023-01-28T13:28:35;101238.44;;;1.25;68.46
22031;BME280;11179;52.106;21.024;2023-01-28T13:31:04;101254.00;;;1.31;68.39
22031;BME280;11179;52.106;21.024;2023-01-28T13:33:33;101262.78;;;1.33;68.62
22031;BME280;11179;52.106;21.024;2023-01-28T13:36:09;101253.34;;;1.20;68.49
22031;BME280;11179;52.106;21.024;2023-01-28T13:38:40;101249.78;;;1.28;68.60
22031;BME280;11179;52.106;21.024;2023-01-28T13:41:06;101257.72;;;1.30;68.40
22031;BME280;11179;52.106;21.024;2023-01-28T13:46:11;101263.41;;;1.43;68.10
22031;BME280;11179;52.106;21.024;2023-01-28T13:48:51;101262.72;;;1.41;68.11
22031;BME280;11179;52.106;21.024;2023-01-28T13:51:22;101260.03;;;1.41;68.11
22031;BME280;11179;52.106;21.024;2023-01-28T13:54:16;101267.28;;;1.40;67.98
22031;BME280;11179;52.106;21.024;2023-01-28T14:05:01;101253.59;;;1.42;67.65
22031;BME280;11179;52.106;21.024;2023-01-28T14:10:30;101261.03;;;1.40;67.83
22031;BME280;11179;52.106;21.024;2023-01-28T14:18:24;101244.63;;;1.41;67.53
22031;BME280;11179;52.106;21.024;2023-01-28T14:20:52;101254.28;;;1.44;67.63
22031;BME280;11179;52.106;21.024;2023-01-28T14:23:20;101261.22;;;1.38;67.67
22031;BME280;11179;52.106;21.024;2023-01-28T14:31:35;101270.00;;;1.40;67.26
22031;BME280;11179;52.106;21.024;2023-01-28T14:34:08;101263.06;;;1.38;67.51
22031;BME280;11179;52.106;21.024;2023-01-28T14:36:39;101257.66;;;1.38;67.18
22031;BME280;11179;52.106;21.024;2023-01-28T14:39:13;101264.94;;;1.37;67.37